createdAt,value
2017-11-25T00:01:21.615Z,3.80
2017-11-25T00:04:24.368Z,3.80
2017-11-25T00:07:26.449Z,3.70
2017-11-25T00:10:28.468Z,3.70
2017-11-25T00:13:31.129Z,3.80
2017-11-25T00:16:33.158Z,3.70
2017-11-25T00:19:35.930Z,3.80
2017-11-25T00:22:37.899Z,3.70
2017-11-25T00:25:39.832Z,3.70
2017-11-25T00:28:41.866Z,3.80
2017-11-25T00:31:43.781Z,3.80
2017-11-25T00:34:46.666Z,3.80
2017-11-25T00:37:49.358Z,3.80
2017-11-25T00:40:51.338Z,3.80
2017-11-25T00:43:53.322Z,3.80
2017-11-25T00:46:55.310Z,3.70
2017-11-25T00:49:57.305Z,3.70
2017-11-25T00:52:59.995Z,3.70
2017-11-25T00:56:02.031Z,3.70
2017-11-25T00:59:04.030Z,3.70
2017-11-25T01:02:05.957Z,3.70
2017-11-25T01:05:07.959Z,3.70
2017-11-25T01:08:10.664Z,3.70
2017-11-25T01:11:12.666Z,3.70
2017-11-25T01:14:14.587Z,3.70
2017-11-25T01:17:16.590Z,3.70
2017-11-25T01:20:18.531Z,3.70
2017-11-25T01:23:20.471Z,3.70
2017-11-25T01:26:23.236Z,3.70
2017-11-25T01:29:25.235Z,3.70
2017-11-25T01:32:29.181Z,3.70
2017-11-25T01:35:31.120Z,3.70
2017-11-25T01:38:33.021Z,3.80
2017-11-25T01:41:35.114Z,3.80
2017-11-25T01:44:38.539Z,3.80
2017-11-25T01:47:40.504Z,3.90
2017-11-25T01:50:42.442Z,3.90
2017-11-25T01:53:44.414Z,3.90
2017-11-25T01:56:46.329Z,3.90
2017-11-25T01:59:48.290Z,4.00
2017-11-25T02:02:50.211Z,3.90
2017-11-25T02:05:52.955Z,3.90
2017-11-25T02:08:55.626Z,3.90
2017-11-25T02:11:57.591Z,3.90
2017-11-25T02:14:59.493Z,3.90
2017-11-25T02:18:02.210Z,3.90
2017-11-25T02:21:04.872Z,4.00
2017-11-25T02:24:06.824Z,3.90
2017-11-25T02:27:08.752Z,3.90
2017-11-25T02:30:10.675Z,3.90
2017-11-25T02:33:12.606Z,3.90
2017-11-25T02:36:14.611Z,3.90
2017-11-25T02:39:16.530Z,3.90
2017-11-25T02:42:18.479Z,3.90
2017-11-25T02:45:21.139Z,3.90
2017-11-25T02:48:23.370Z,3.90
2017-11-25T02:51:26.059Z,4.00
2017-11-25T02:54:27.992Z,4.00
2017-11-25T02:57:29.931Z,3.90
2017-11-25T03:00:32.637Z,3.90
2017-11-25T03:03:36.185Z,3.90
2017-11-25T03:06:38.101Z,3.80
2017-11-25T03:09:40.039Z,3.90
2017-11-25T03:12:41.962Z,3.80
2017-11-25T03:15:43.890Z,3.90
2017-11-25T03:18:46.783Z,3.80
2017-11-25T03:21:49.482Z,3.90
2017-11-25T03:24:52.241Z,3.90
2017-11-25T03:27:54.156Z,3.80
2017-11-25T03:30:56.874Z,3.80
2017-11-25T03:33:59.565Z,3.80
2017-11-25T03:37:02.266Z,3.70
2017-11-25T03:40:05.062Z,3.70
2017-11-25T03:43:07.755Z,3.80
2017-11-25T03:46:09.715Z,3.70
2017-11-25T03:49:11.687Z,3.80
2017-11-25T03:52:13.600Z,3.80
2017-11-25T03:55:15.522Z,3.80
2017-11-25T03:58:17.448Z,3.80
2017-11-25T04:01:19.573Z,3.90
2017-11-25T04:04:22.242Z,3.80
2017-11-25T04:07:24.160Z,3.80
2017-11-25T04:10:26.848Z,3.80
2017-11-25T04:13:29.527Z,3.80
2017-11-25T04:16:31.439Z,3.80
2017-11-25T04:19:34.123Z,3.80
2017-11-25T04:22:36.844Z,3.80
2017-11-25T04:25:38.780Z,3.70
2017-11-25T04:28:41.445Z,3.70
2017-11-25T04:31:43.466Z,3.70
2017-11-25T04:34:45.405Z,3.80
2017-11-25T04:37:48.000Z,3.80
2017-11-25T04:40:49.926Z,3.70
2017-11-25T04:43:51.902Z,3.70
2017-11-25T04:46:53.812Z,3.70
2017-11-25T04:49:55.730Z,3.70
2017-11-25T04:52:57.650Z,3.70
2017-11-25T04:55:59.582Z,3.70
2017-11-25T04:59:01.483Z,3.70
2017-11-25T05:02:03.438Z,3.70
2017-11-25T05:05:06.156Z,3.70
2017-11-25T05:08:08.052Z,3.70
2017-11-25T05:11:11.228Z,3.70
2017-11-25T05:14:13.924Z,3.80
2017-11-25T05:17:16.613Z,3.70
2017-11-25T05:20:19.285Z,3.70
2017-11-25T05:23:21.195Z,3.70
2017-11-25T05:26:23.108Z,3.70
2017-11-25T05:29:25.022Z,3.60
2017-11-25T05:32:26.962Z,3.60
2017-11-25T05:35:28.916Z,3.60
2017-11-25T05:38:30.876Z,3.60
2017-11-25T05:41:32.850Z,3.60
2017-11-25T05:44:34.836Z,3.60
2017-11-25T05:47:36.790Z,3.60
2017-11-25T05:50:38.709Z,3.60
2017-11-25T05:53:40.709Z,3.60
2017-11-25T05:56:42.644Z,3.60
2017-11-25T05:59:44.557Z,3.60
2017-11-25T06:02:46.531Z,3.60
2017-11-25T06:05:48.524Z,3.60
2017-11-25T06:08:50.468Z,3.70
2017-11-25T06:11:52.423Z,3.60
2017-11-25T06:14:55.182Z,3.70
2017-11-25T06:17:57.086Z,3.60
2017-11-25T06:20:59.015Z,3.70
2017-11-25T06:24:00.950Z,3.70
2017-11-25T06:27:02.912Z,3.70
2017-11-25T06:30:04.878Z,3.70
2017-11-25T06:33:06.794Z,3.70
2017-11-25T06:36:08.791Z,3.80
2017-11-25T06:39:11.454Z,3.80
2017-11-25T06:42:14.213Z,3.80
2017-11-25T06:45:16.139Z,3.80
2017-11-25T06:48:18.665Z,3.80
2017-11-25T06:51:21.453Z,3.70
2017-11-25T06:54:23.428Z,3.60
2017-11-25T06:57:25.446Z,3.60
2017-11-25T07:00:28.234Z,3.60
2017-11-25T07:03:31.039Z,3.60
2017-11-25T07:06:33.826Z,3.60
2017-11-25T07:09:36.543Z,3.50
2017-11-25T07:12:39.340Z,3.50
2017-11-25T07:15:42.117Z,3.60
2017-11-25T07:18:44.017Z,3.60
2017-11-25T07:21:45.951Z,3.60
2017-11-25T07:24:47.849Z,3.60
2017-11-25T07:27:49.794Z,3.50
2017-11-25T07:30:51.754Z,3.50
2017-11-25T07:33:54.462Z,3.50
2017-11-25T07:36:57.218Z,3.60
2017-11-25T07:39:59.191Z,3.60
2017-11-25T07:43:01.503Z,3.60
2017-11-25T07:46:03.421Z,3.70
2017-11-25T07:49:06.120Z,3.80
2017-11-25T07:52:08.840Z,3.80
2017-11-25T07:55:10.741Z,3.80
2017-11-25T07:58:12.756Z,3.80
2017-11-25T08:01:14.666Z,3.90
2017-11-25T08:04:17.421Z,4.00
2017-11-25T08:07:19.369Z,4.00
2017-11-25T08:10:21.294Z,4.00
2017-11-25T08:13:23.396Z,4.00
2017-11-25T08:16:25.591Z,4.10
2017-11-25T08:19:27.567Z,4.10
2017-11-25T08:22:29.476Z,4.20
2017-11-25T08:25:32.152Z,4.30
2017-11-25T08:28:34.052Z,4.30
2017-11-25T08:31:36.829Z,4.40
2017-11-25T08:34:38.790Z,4.30
2017-11-25T08:37:40.784Z,4.40
2017-11-25T08:40:42.787Z,4.40
2017-11-25T08:43:44.750Z,4.40
2017-11-25T08:46:46.966Z,4.40
2017-11-25T08:49:49.743Z,4.50
2017-11-25T08:52:51.669Z,4.40
2017-11-25T08:55:53.613Z,4.50
2017-11-25T08:58:55.608Z,4.50
2017-11-25T09:01:57.586Z,4.50
2017-11-25T09:04:59.519Z,4.50
2017-11-25T09:08:01.579Z,4.50
2017-11-25T09:11:04.262Z,4.40
2017-11-25T09:14:06.248Z,4.30
2017-11-25T09:17:09.658Z,4.30
2017-11-25T09:20:11.602Z,4.20
2017-11-25T09:23:13.654Z,4.20
2017-11-25T09:26:16.347Z,4.10
2017-11-25T09:29:19.198Z,4.10
2017-11-25T09:32:21.117Z,4.10
2017-11-25T09:35:23.020Z,4.10
2017-11-25T09:38:25.714Z,4.10
2017-11-25T09:41:28.402Z,4.10
2017-11-25T09:44:31.082Z,4.00
2017-11-25T09:47:32.991Z,4.00
2017-11-25T09:50:35.709Z,4.00
2017-11-25T09:53:37.709Z,4.00
2017-11-25T09:56:39.639Z,4.00
2017-11-25T09:59:41.623Z,4.10
2017-11-25T10:02:43.645Z,4.20
2017-11-25T10:05:45.567Z,4.30
2017-11-25T10:08:47.555Z,4.60
2017-11-25T10:11:49.629Z,4.90
2017-11-25T10:14:51.534Z,5.10
2017-11-25T10:17:54.259Z,5.20
2017-11-25T10:20:57.041Z,5.90
2017-11-25T10:23:59.962Z,5.90
2017-11-25T10:27:02.645Z,6.40
2017-11-25T10:30:04.572Z,6.40
2017-11-25T10:33:06.499Z,6.40
2017-11-25T10:36:08.404Z,6.40
2017-11-25T10:39:11.175Z,6.80
2017-11-25T10:42:13.079Z,6.80
2017-11-25T10:45:15.028Z,6.80
2017-11-25T10:48:16.949Z,6.70
2017-11-25T10:51:18.876Z,6.60
2017-11-25T10:54:20.782Z,6.70
2017-11-25T10:57:22.874Z,7.20
2017-11-25T11:00:24.790Z,7.60
2017-11-25T11:03:27.479Z,8.40
2017-11-25T11:06:29.524Z,8.40
2017-11-25T11:09:31.436Z,9.10
2017-11-25T11:12:33.396Z,10.80
2017-11-25T11:15:35.366Z,12.20
2017-11-25T11:18:37.484Z,13.30
2017-11-25T11:21:39.405Z,15.20
2017-11-25T11:24:42.187Z,20.00
2017-11-25T11:27:44.266Z,19.90
2017-11-25T11:30:46.203Z,21.50
2017-11-25T11:33:48.178Z,22.90
2017-11-25T11:36:50.092Z,24.10
2017-11-25T11:39:52.010Z,24.90
2017-11-25T11:42:54.911Z,25.70
2017-11-25T11:45:57.713Z,26.40
2017-11-25T11:49:00.375Z,27.10
2017-11-25T11:52:02.303Z,27.00
2017-11-25T11:55:04.992Z,28.10
2017-11-25T11:58:07.760Z,28.30
2017-11-25T12:01:09.711Z,28.30
2017-11-25T12:04:11.606Z,27.50
2017-11-25T12:07:13.561Z,27.50
2017-11-25T12:10:15.455Z,27.70
2017-11-25T12:13:17.417Z,28.00
2017-11-25T12:16:20.101Z,29.00
2017-11-25T12:19:22.025Z,28.90
2017-11-25T12:22:23.970Z,29.40
2017-11-25T12:25:25.924Z,29.50
2017-11-25T12:28:27.914Z,29.40
2017-11-25T12:31:29.838Z,28.50
2017-11-25T12:34:32.515Z,23.50
2017-11-25T12:37:34.430Z,23.40
2017-11-25T12:40:36.326Z,20.70
2017-11-25T12:43:38.244Z,18.50
2017-11-25T12:46:40.226Z,17.30
2017-11-25T12:49:42.334Z,16.60
2017-11-25T12:52:45.252Z,15.90
2017-11-25T12:55:47.200Z,15.90
2017-11-25T12:58:49.127Z,16.30
2017-11-25T13:01:51.850Z,16.60
2017-11-25T13:04:53.813Z,16.60
2017-11-25T13:07:56.570Z,16.40
2017-11-25T13:10:58.490Z,16.30
2017-11-25T13:14:01.259Z,15.00
2017-11-25T13:17:03.156Z,15.00
2017-11-25T13:20:05.259Z,14.20
2017-11-25T13:23:07.951Z,13.40
2017-11-25T13:26:09.929Z,13.30
2017-11-25T13:29:11.846Z,12.90
2017-11-25T13:32:13.799Z,12.40
2017-11-25T13:35:15.733Z,12.20
2017-11-25T13:38:17.777Z,12.00
2017-11-25T13:41:19.720Z,11.60
2017-11-25T13:44:21.693Z,11.20
2017-11-25T13:47:23.594Z,10.80
2017-11-25T13:50:25.546Z,10.40
2017-11-25T13:53:27.466Z,10.00
2017-11-25T13:56:29.380Z,9.70
2017-11-25T13:59:32.070Z,9.10
2017-11-25T14:02:34.788Z,8.90
2017-11-25T14:05:36.727Z,8.90
2017-11-25T14:08:38.646Z,8.70
2017-11-25T14:11:41.302Z,8.40
2017-11-25T14:14:43.256Z,8.30
2017-11-25T14:17:45.177Z,8.30
2017-11-25T14:20:47.290Z,8.40
2017-11-25T14:23:49.967Z,8.40
2017-11-25T14:26:51.891Z,8.40
2017-11-25T14:29:53.858Z,8.30
2017-11-25T14:32:56.570Z,7.90
2017-11-25T14:35:59.379Z,7.70
2017-11-25T14:39:01.309Z,7.70
2017-11-25T14:42:03.426Z,7.60
2017-11-25T14:45:06.261Z,7.10
2017-11-25T14:48:08.177Z,7.10
2017-11-25T14:51:10.104Z,7.00
2017-11-25T14:54:12.766Z,6.60
2017-11-25T14:57:14.708Z,6.60
2017-11-25T15:00:17.096Z,6.50
2017-11-25T15:03:19.610Z,6.30
2017-11-25T15:06:21.531Z,6.20
2017-11-25T15:09:23.514Z,6.00
2017-11-25T15:12:25.443Z,5.90
2017-11-25T15:15:27.383Z,5.70
2017-11-25T15:18:30.063Z,5.40
2017-11-25T15:21:31.986Z,5.40
2017-11-25T15:24:33.902Z,5.20
2017-11-25T15:27:35.866Z,5.10
2017-11-25T15:30:37.755Z,5.00
2017-11-25T15:33:39.798Z,4.90
2017-11-25T15:36:42.489Z,4.70
2017-11-25T15:39:44.446Z,4.70
2017-11-25T15:42:46.347Z,4.60
2017-11-25T15:45:48.269Z,4.50
2017-11-25T15:48:50.166Z,4.40
2017-11-25T15:51:52.088Z,4.30
2017-11-25T15:54:54.003Z,4.30
2017-11-25T15:57:56.726Z,4.20
2017-11-25T16:00:58.624Z,4.10
2017-11-25T16:04:00.550Z,4.10
2017-11-25T16:07:03.234Z,4.00
2017-11-25T16:10:05.277Z,3.90
2017-11-25T16:13:07.214Z,3.90
2017-11-25T16:16:09.242Z,3.90
2017-11-25T16:19:11.160Z,3.80
2017-11-25T16:22:13.219Z,3.80
2017-11-25T16:25:15.116Z,3.80
2017-11-25T16:28:17.097Z,3.70
2017-11-25T16:31:18.998Z,3.70
2017-11-25T16:34:20.924Z,3.60
2017-11-25T16:37:22.851Z,3.60
2017-11-25T16:40:24.803Z,3.60
2017-11-25T16:43:26.815Z,3.50
2017-11-25T16:46:28.738Z,3.50
2017-11-25T16:49:31.488Z,3.30
2017-11-25T16:52:33.487Z,3.30
2017-11-25T16:55:35.405Z,3.30
2017-11-25T16:58:38.166Z,3.20
2017-11-25T17:01:40.169Z,3.20
2017-11-25T17:04:42.119Z,3.20
2017-11-25T17:07:44.027Z,3.20
2017-11-25T17:10:46.101Z,3.10
2017-11-25T17:13:48.030Z,3.10
2017-11-25T17:16:50.083Z,3.10
2017-11-25T17:19:51.980Z,3.10
2017-11-25T17:22:55.263Z,3.00
2017-11-25T17:25:57.182Z,3.00
2017-11-25T17:28:59.111Z,3.00
2017-11-25T17:32:01.127Z,3.00
2017-11-25T17:35:03.045Z,3.00
2017-11-25T17:38:05.070Z,3.00
2017-11-25T17:41:07.021Z,2.90
2017-11-25T17:44:08.939Z,2.90
2017-11-25T17:47:10.921Z,2.90
2017-11-25T17:50:12.908Z,2.90
2017-11-25T17:53:14.919Z,2.90
2017-11-25T17:56:17.628Z,2.90
2017-11-25T17:59:20.422Z,2.80
2017-11-25T18:02:22.344Z,2.80
2017-11-25T18:05:24.278Z,2.80
2017-11-25T18:08:26.207Z,2.80
2017-11-25T18:11:28.152Z,2.80
2017-11-25T18:14:30.920Z,2.80
2017-11-25T18:17:32.940Z,2.70
2017-11-25T18:20:35.847Z,2.70
2017-11-25T18:23:38.626Z,2.70
2017-11-25T18:26:40.516Z,2.70
2017-11-25T18:29:42.478Z,2.70
2017-11-25T18:32:44.378Z,2.70
2017-11-25T18:35:46.303Z,2.70
2017-11-25T18:38:48.227Z,2.60
2017-11-25T18:41:50.207Z,2.60
2017-11-25T18:44:52.125Z,2.60
2017-11-25T18:47:54.811Z,2.60
2017-11-25T18:50:57.502Z,2.50
2017-11-25T18:53:59.714Z,2.50
2017-11-25T18:57:01.687Z,2.50
2017-11-25T19:00:03.596Z,2.50
2017-11-25T19:03:06.273Z,2.50
2017-11-25T19:06:08.256Z,2.50
2017-11-25T19:09:10.265Z,2.50
2017-11-25T19:12:12.974Z,2.40
2017-11-25T19:15:15.735Z,2.40
2017-11-25T19:18:18.684Z,2.40
2017-11-25T19:21:21.347Z,2.40
2017-11-25T19:24:23.267Z,2.40
2017-11-25T19:27:25.956Z,2.40
2017-11-25T19:30:28.048Z,2.40
2017-11-25T19:33:29.946Z,2.50
2017-11-25T19:36:32.634Z,2.50
2017-11-25T19:39:35.322Z,2.40
2017-11-25T19:42:37.246Z,2.40
2017-11-25T19:45:39.176Z,2.40
2017-11-25T19:48:42.052Z,2.40
2017-11-25T19:51:44.064Z,2.40
2017-11-25T19:54:46.063Z,2.40
2017-11-25T19:57:48.752Z,2.40
2017-11-25T20:00:50.685Z,2.40
2017-11-25T20:03:52.598Z,2.40
2017-11-25T20:06:54.522Z,2.40
2017-11-25T20:09:56.459Z,2.40
2017-11-25T20:12:58.375Z,2.40
2017-11-25T20:16:00.281Z,2.40
2017-11-25T20:19:02.994Z,2.40
2017-11-25T20:22:04.943Z,2.40
2017-11-25T20:25:08.060Z,2.40
2017-11-25T20:28:10.716Z,2.40
2017-11-25T20:31:12.647Z,2.40
2017-11-25T20:34:15.389Z,2.40
2017-11-25T20:37:17.338Z,2.30
2017-11-25T20:40:19.261Z,2.40
2017-11-25T20:43:21.402Z,2.40
2017-11-25T20:46:24.094Z,2.40
2017-11-25T20:49:26.809Z,2.30
2017-11-25T20:52:29.589Z,2.30
2017-11-25T20:55:31.559Z,2.20
2017-11-25T20:58:33.473Z,2.30
2017-11-25T21:01:36.158Z,2.20
2017-11-25T21:04:38.858Z,2.20
2017-11-25T21:07:40.941Z,2.20
2017-11-25T21:10:43.409Z,2.20
2017-11-25T21:13:45.365Z,2.20
2017-11-25T21:16:47.281Z,2.10
2017-11-25T21:19:49.204Z,2.10
2017-11-25T21:22:51.107Z,2.10
2017-11-25T21:25:53.050Z,2.10
2017-11-25T21:28:55.862Z,2.10
2017-11-25T21:31:58.564Z,2.00
2017-11-25T21:35:01.222Z,2.00
2017-11-25T21:38:03.158Z,2.00
2017-11-25T21:41:05.051Z,2.00
2017-11-25T21:44:06.967Z,2.00
2017-11-25T21:47:08.868Z,2.00
2017-11-25T21:50:10.832Z,2.00
2017-11-25T21:53:12.810Z,2.00
2017-11-25T21:56:14.739Z,2.00
2017-11-25T21:59:17.418Z,2.00
2017-11-25T22:02:19.361Z,2.00
2017-11-25T22:05:21.283Z,2.00
2017-11-25T22:08:23.976Z,2.00
2017-11-25T22:11:25.961Z,1.90
2017-11-25T22:14:28.163Z,2.00
2017-11-25T22:17:31.774Z,1.90
2017-11-25T22:20:33.800Z,1.90
2017-11-25T22:23:35.738Z,1.90
2017-11-25T22:26:37.690Z,1.90
2017-11-25T22:29:39.679Z,1.90
2017-11-25T22:32:41.673Z,1.90
2017-11-25T22:35:43.582Z,1.90
2017-11-25T22:38:46.290Z,1.90
2017-11-25T22:41:48.982Z,1.90
2017-11-25T22:44:51.755Z,1.90
2017-11-25T22:47:54.456Z,1.80
2017-11-25T22:50:56.426Z,1.90
2017-11-25T22:53:58.528Z,1.90
2017-11-25T22:57:00.468Z,1.90
2017-11-25T23:00:02.548Z,1.90
2017-11-25T23:03:04.591Z,2.00
2017-11-25T23:06:06.551Z,2.00
2017-11-25T23:09:10.171Z,2.00
2017-11-25T23:12:12.206Z,2.00
2017-11-25T23:15:14.180Z,2.00
2017-11-25T23:18:16.854Z,2.10
2017-11-25T23:21:18.787Z,2.10
2017-11-25T23:24:20.678Z,2.20
2017-11-25T23:27:22.597Z,2.10
2017-11-25T23:30:24.569Z,2.20
2017-11-25T23:33:26.578Z,2.10
2017-11-25T23:36:28.702Z,2.00
2017-11-25T23:39:30.619Z,2.00
2017-11-25T23:42:32.630Z,2.00
2017-11-25T23:45:34.617Z,1.90
2017-11-25T23:48:36.576Z,1.90
2017-11-25T23:51:38.583Z,1.80
2017-11-25T23:54:41.239Z,1.80
2017-11-25T23:57:43.250Z,1.80
